createdAt,value
2018-04-25T00:01:19.480Z,92.04
2018-04-25T00:03:47.063Z,92.01
2018-04-25T00:06:43.125Z,92.00
2018-04-25T00:09:10.833Z,91.99
2018-04-25T00:11:41.117Z,92.00
2018-04-25T00:14:13.182Z,92.01
2018-04-25T00:16:40.743Z,92.07
2018-04-25T00:19:10.104Z,92.06
2018-04-25T00:21:37.709Z,92.04
2018-04-25T00:29:56.884Z,92.07
2018-04-25T00:35:00.684Z,92.08
2018-04-25T00:37:28.313Z,92.04
2018-04-25T00:39:55.938Z,92.08
2018-04-25T00:50:27.546Z,92.13
2018-04-25T00:52:55.091Z,92.21
2018-04-25T00:55:23.322Z,92.33
2018-04-25T00:57:50.973Z,92.36
2018-04-25T01:09:00.420Z,92.45
2018-04-25T01:11:28.883Z,92.49
2018-04-25T01:13:56.545Z,92.46
2018-04-25T01:24:50.485Z,92.48
2018-04-25T01:27:18.056Z,92.38
2018-04-25T01:29:46.617Z,92.32
2018-04-25T01:32:14.263Z,92.28
2018-04-25T01:43:20.823Z,92.02
2018-04-25T01:49:07.503Z,91.97
2018-04-25T02:00:40.025Z,91.86
2018-04-25T02:03:07.135Z,91.78
2018-04-25T02:05:34.751Z,91.73
2018-04-25T02:08:05.123Z,91.68
2018-04-25T02:13:16.910Z,91.61
2018-04-25T02:15:48.769Z,91.60
2018-04-25T02:18:17.578Z,91.58
2018-04-25T02:20:45.183Z,91.56
2018-04-25T02:23:12.801Z,91.55
2018-04-25T02:25:44.879Z,91.56
2018-04-25T02:28:16.975Z,91.50
2018-04-25T02:30:46.136Z,91.45
2018-04-25T02:33:17.640Z,91.45
2018-04-25T02:35:45.303Z,91.50
2018-04-25T02:38:12.871Z,91.49
2018-04-25T02:40:40.423Z,91.56
2018-04-25T02:43:10.374Z,91.54
2018-04-25T02:48:17.953Z,91.54
2018-04-25T02:50:47.118Z,91.64
2018-04-25T02:53:14.658Z,91.72
2018-04-25T02:55:42.217Z,91.75
2018-04-25T02:58:09.850Z,91.71
2018-04-25T03:00:40.931Z,91.69
2018-04-25T03:03:12.730Z,91.83
2018-04-25T03:05:44.705Z,91.80
2018-04-25T03:08:14.198Z,91.78
2018-04-25T03:10:41.832Z,91.79
2018-04-25T03:13:10.347Z,91.78
2018-04-25T03:15:37.850Z,91.76
2018-04-25T03:18:06.445Z,91.80
2018-04-25T03:20:34.654Z,91.89
2018-04-25T03:23:02.316Z,91.92
2018-04-25T03:25:29.872Z,91.97
2018-04-25T03:27:57.931Z,92.01
2018-04-25T03:30:25.467Z,92.12
2018-04-25T03:32:53.035Z,92.19
2018-04-25T03:35:21.573Z,92.22
2018-04-25T03:37:57.205Z,92.35
2018-04-25T03:40:28.603Z,92.35
2018-04-25T03:42:56.211Z,92.46
2018-04-25T03:45:24.419Z,92.60
2018-04-25T03:47:52.058Z,92.70
2018-04-25T03:50:19.606Z,92.66
2018-04-25T03:52:48.953Z,92.67
2018-04-25T03:55:17.165Z,92.66
2018-04-25T03:57:49.992Z,92.69
2018-04-25T04:00:17.620Z,92.75
2018-04-25T04:02:45.140Z,92.68
2018-04-25T04:05:13.638Z,92.63
2018-04-25T04:07:41.477Z,92.59
2018-04-25T04:10:10.419Z,92.55
2018-04-25T04:12:41.824Z,92.53
2018-04-25T04:15:10.591Z,92.53
2018-04-25T04:17:38.162Z,92.57
2018-04-25T04:20:05.658Z,92.59
2018-04-25T04:22:33.207Z,92.62
2018-04-25T04:25:00.788Z,92.64
2018-04-25T04:27:30.962Z,92.64
2018-04-25T04:29:58.607Z,92.61
2018-04-25T04:32:26.594Z,92.56
2018-04-25T04:34:54.876Z,92.52
2018-04-25T04:37:23.008Z,92.50
2018-04-25T04:39:50.537Z,92.48
2018-04-25T04:42:18.067Z,92.48
2018-04-25T04:44:46.743Z,92.45
2018-04-25T04:47:15.642Z,92.40
2018-04-25T04:49:45.684Z,92.30
2018-04-25T04:52:13.203Z,92.12
2018-04-25T04:54:41.764Z,92.07
2018-04-25T04:57:09.335Z,92.01
2018-04-25T04:59:38.175Z,91.99
2018-04-25T05:02:08.984Z,91.94
2018-04-25T05:04:40.956Z,91.87
2018-04-25T05:07:13.073Z,91.81
2018-04-25T05:09:40.607Z,91.76
2018-04-25T05:12:08.132Z,91.68
2018-04-25T05:14:36.357Z,91.66
2018-04-25T05:17:03.990Z,91.60
2018-04-25T05:19:37.913Z,91.55
2018-04-25T05:24:45.175Z,91.44
2018-04-25T05:27:12.770Z,91.39
2018-04-25T05:29:40.353Z,91.39
2018-04-25T05:32:07.967Z,91.43
2018-04-25T05:34:37.950Z,91.50
2018-04-25T05:39:46.744Z,91.61
2018-04-25T05:44:52.963Z,91.76
2018-04-25T05:47:21.491Z,91.75
2018-04-25T05:49:49.059Z,91.75
2018-04-25T05:52:18.221Z,91.69
2018-04-25T05:54:46.670Z,91.57
2018-04-25T05:57:22.432Z,91.43
2018-04-25T05:59:53.840Z,91.36
2018-04-25T06:02:21.435Z,91.31
2018-04-25T06:04:48.964Z,91.17
2018-04-25T06:07:18.465Z,91.08
2018-04-25T06:09:49.376Z,91.05
2018-04-25T06:12:17.813Z,91.04
2018-04-25T06:14:54.790Z,90.99
2018-04-25T06:17:22.585Z,90.99
2018-04-25T06:19:50.216Z,91.01
2018-04-25T06:22:17.775Z,91.03
2018-04-25T06:24:45.331Z,91.00
2018-04-25T06:27:16.103Z,91.01
2018-04-25T06:29:46.635Z,90.95
2018-04-25T06:32:18.614Z,90.91
2018-04-25T06:34:46.848Z,90.79
2018-04-25T06:37:14.407Z,90.75
2018-04-25T06:39:41.961Z,90.66
2018-04-25T06:42:10.331Z,90.41
2018-04-25T06:44:41.353Z,90.37
2018-04-25T06:47:14.002Z,90.35
2018-04-25T06:49:42.515Z,90.19
2018-04-25T06:52:10.158Z,90.23
2018-04-25T06:54:37.743Z,90.09
2018-04-25T06:57:05.263Z,89.98
2018-04-25T06:59:32.807Z,89.97
2018-04-25T07:02:03.353Z,90.02
2018-04-25T07:04:33.861Z,90.13
2018-04-25T07:07:02.738Z,90.18
2018-04-25T07:09:32.851Z,90.11
2018-04-25T07:12:00.529Z,89.77
2018-04-25T07:14:28.090Z,89.72
2018-04-25T07:16:55.622Z,89.58
2018-04-25T07:19:24.840Z,89.38
2018-04-25T07:21:55.079Z,89.29
2018-04-25T07:24:29.195Z,89.13
2018-04-25T07:26:56.763Z,88.73
2018-04-25T07:29:24.357Z,88.66
2018-04-25T07:31:52.994Z,88.70
2018-04-25T07:34:20.635Z,88.79
2018-04-25T07:36:49.640Z,88.74
2018-04-25T07:44:40.896Z,87.35
2018-04-25T07:47:08.446Z,87.37
2018-04-25T07:49:36.073Z,87.11
2018-04-25T07:52:03.788Z,86.78
2018-04-25T07:54:33.903Z,86.88
2018-04-25T07:57:13.929Z,86.53
2018-04-25T08:02:45.112Z,85.79
2018-04-25T08:05:12.777Z,85.73
2018-04-25T08:07:40.420Z,85.06
2018-04-25T08:19:28.190Z,84.60
2018-04-25T08:21:55.817Z,84.50
2018-04-25T08:24:23.351Z,83.69
2018-04-25T08:26:51.088Z,84.08
2018-04-25T08:35:01.973Z,83.83
2018-04-25T08:37:29.571Z,83.31
2018-04-25T08:39:57.103Z,83.15
2018-04-25T08:42:24.696Z,82.47
2018-04-25T08:44:54.754Z,82.23
2018-04-25T08:47:25.123Z,81.28
2018-04-25T08:49:56.967Z,80.67
2018-04-25T08:52:28.826Z,80.70
2018-04-25T08:54:56.352Z,80.56
2018-04-25T08:57:23.931Z,79.85
2018-04-25T08:59:51.523Z,78.50
2018-04-25T09:02:19.116Z,79.06
2018-04-25T09:04:46.663Z,78.96
2018-04-25T09:07:17.132Z,79.23
2018-04-25T09:09:44.671Z,79.25
2018-04-25T09:12:12.187Z,79.71
2018-04-25T09:14:39.742Z,80.19
2018-04-25T09:17:07.305Z,81.54
2018-04-25T09:19:37.093Z,81.60
2018-04-25T09:22:07.497Z,80.81
2018-04-25T09:24:37.885Z,79.95
2018-04-25T09:27:05.512Z,79.31
2018-04-25T09:29:33.110Z,78.21
2018-04-25T09:32:00.649Z,78.07
2018-04-25T09:34:28.302Z,76.93
2018-04-25T09:36:56.473Z,77.96
2018-04-25T09:39:25.670Z,76.40
2018-04-25T09:41:57.060Z,76.32
2018-04-25T09:44:24.679Z,77.73
2018-04-25T09:46:52.223Z,78.64
2018-04-25T09:49:19.739Z,79.11
2018-04-25T09:51:47.344Z,79.39
2018-04-25T09:54:14.915Z,79.63
2018-04-25T09:56:42.536Z,80.17
2018-04-25T09:59:10.906Z,80.67
2018-04-25T10:04:11.951Z,81.72
2018-04-25T10:06:39.472Z,82.01
2018-04-25T10:09:07.038Z,82.25
2018-04-25T10:19:48.167Z,83.25
2018-04-25T10:22:15.784Z,83.43
2018-04-25T10:24:43.383Z,83.53
2018-04-25T10:27:10.969Z,85.88
2018-04-25T10:29:38.555Z,85.32
2018-04-25T10:32:17.292Z,84.08
2018-04-25T10:37:20.685Z,82.49
2018-04-25T10:39:48.316Z,82.66
2018-04-25T10:42:15.885Z,79.79
2018-04-25T10:44:45.142Z,78.01
2018-04-25T10:47:17.119Z,78.66
2018-04-25T10:49:48.928Z,81.08
2018-04-25T10:52:22.168Z,82.36
2018-04-25T10:54:49.789Z,82.58
2018-04-25T10:57:17.415Z,82.30
2018-04-25T10:59:45.082Z,81.67
2018-04-25T11:05:02.665Z,80.35
2018-04-25T11:07:35.069Z,80.55
2018-04-25T11:10:09.011Z,79.76
2018-04-25T11:12:36.710Z,79.29
2018-04-25T11:15:04.251Z,78.62
2018-04-25T11:17:32.198Z,76.75
2018-04-25T11:28:39.563Z,78.25
2018-04-25T11:31:07.131Z,78.36
2018-04-25T11:33:34.920Z,77.68
2018-04-25T11:45:11.118Z,76.15
2018-04-25T11:47:38.732Z,76.28
2018-04-25T11:50:06.327Z,75.73
2018-04-25T11:52:34.010Z,75.73
2018-04-25T11:55:05.210Z,75.44
2018-04-25T11:57:38.226Z,75.42
2018-04-25T12:00:06.523Z,76.45
2018-04-25T12:02:34.255Z,75.34
2018-04-25T12:05:01.901Z,75.74
2018-04-25T12:07:29.350Z,74.95
2018-04-25T12:09:56.985Z,75.50
2018-04-25T12:12:26.964Z,74.88
2018-04-25T12:19:58.227Z,74.43
2018-04-25T12:22:25.768Z,73.84
2018-04-25T12:24:53.418Z,72.92
2018-04-25T12:27:21.131Z,73.42
2018-04-25T12:29:53.051Z,71.74
2018-04-25T12:32:23.199Z,73.27
2018-04-25T12:34:56.554Z,72.60
2018-04-25T12:37:25.079Z,72.51
2018-04-25T12:39:52.583Z,72.53
2018-04-25T12:42:21.852Z,71.40
2018-04-25T12:47:27.056Z,72.50
2018-04-25T12:49:59.456Z,72.62
2018-04-25T12:52:29.805Z,73.25
2018-04-25T12:54:57.359Z,73.09
2018-04-25T12:57:24.993Z,72.38
2018-04-25T12:59:52.674Z,72.65
2018-04-25T13:02:21.274Z,71.15
2018-04-25T13:04:50.771Z,71.07
2018-04-25T13:07:21.306Z,69.67
2018-04-25T13:09:50.286Z,70.31
2018-04-25T13:12:17.928Z,70.62
2018-04-25T13:14:45.484Z,69.30
2018-04-25T13:17:13.061Z,70.43
2018-04-25T13:22:30.856Z,69.09
2018-04-25T13:27:36.708Z,68.66
2018-04-25T13:30:04.267Z,69.04
2018-04-25T13:32:31.927Z,68.63
2018-04-25T13:34:59.565Z,69.83
2018-04-25T13:46:08.283Z,69.45
2018-04-25T13:48:35.880Z,69.23
2018-04-25T13:51:03.414Z,69.35
2018-04-25T14:03:06.799Z,67.91
2018-04-25T14:05:34.343Z,66.46
2018-04-25T14:08:02.005Z,67.32
2018-04-25T14:10:30.877Z,67.07
2018-04-25T14:21:36.945Z,66.73
2018-04-25T14:24:04.514Z,66.63
2018-04-25T14:26:32.115Z,66.23
2018-04-25T14:32:11.065Z,66.07
2018-04-25T14:34:39.926Z,65.58
2018-04-25T14:37:08.137Z,64.80
2018-04-25T14:39:35.850Z,65.14
2018-04-25T14:42:03.442Z,65.44
2018-04-25T14:44:31.075Z,65.25
2018-04-25T14:47:01.165Z,66.31
2018-04-25T14:49:31.211Z,66.53
2018-04-25T14:51:59.298Z,66.52
2018-04-25T14:54:28.046Z,65.04
2018-04-25T14:56:55.583Z,66.00
2018-04-25T14:59:23.143Z,66.13
2018-04-25T15:01:51.879Z,66.23
2018-04-25T15:04:22.682Z,66.21
2018-04-25T15:06:53.876Z,66.62
2018-04-25T15:12:24.319Z,65.62
2018-04-25T15:14:51.985Z,65.34
2018-04-25T15:17:19.541Z,64.90
2018-04-25T15:28:04.345Z,64.86
2018-04-25T15:30:31.918Z,64.96
2018-04-25T15:32:59.482Z,65.01
2018-04-25T15:35:27.224Z,65.02
2018-04-25T16:04:16.788Z,61.49
2018-04-25T16:06:44.613Z,61.36
2018-04-25T16:09:12.236Z,61.21
2018-04-25T16:17:53.954Z,59.90
2018-04-25T16:20:21.551Z,59.73
2018-04-25T16:22:49.189Z,58.63
2018-04-25T16:25:16.696Z,59.20
2018-04-25T16:33:18.150Z,62.01
2018-04-25T16:35:46.776Z,61.91
2018-04-25T16:38:14.352Z,60.98
2018-04-25T16:40:41.901Z,61.49
2018-04-25T16:43:09.497Z,62.18
2018-04-25T16:45:38.919Z,63.10
2018-04-25T16:48:07.460Z,62.69
2018-04-25T16:50:38.152Z,61.63
2018-04-25T16:53:06.882Z,61.74
2018-04-25T16:55:34.426Z,62.22
2018-04-25T16:58:01.974Z,62.34
2018-04-25T17:00:29.612Z,62.98
2018-04-25T17:03:02.204Z,63.83
2018-04-25T17:05:30.963Z,65.12
2018-04-25T17:07:59.365Z,65.32
2018-04-25T17:10:31.037Z,65.50
2018-04-25T17:12:58.560Z,66.60
2018-04-25T17:15:26.131Z,67.25
2018-04-25T17:17:53.695Z,67.54
2018-04-25T17:20:26.131Z,67.29
2018-04-25T17:22:57.392Z,67.57
2018-04-25T17:25:26.449Z,67.93
2018-04-25T17:27:55.205Z,68.17
2018-04-25T17:30:22.858Z,67.98
2018-04-25T17:32:50.399Z,68.35
2018-04-25T17:35:18.075Z,67.93
2018-04-25T17:37:49.423Z,66.96
2018-04-25T17:40:19.175Z,66.13
2018-04-25T17:42:47.231Z,65.85
2018-04-25T17:45:14.904Z,65.37
2018-04-25T17:47:42.422Z,64.95
2018-04-25T17:50:09.997Z,65.07
2018-04-25T17:52:37.543Z,65.30
2018-04-25T17:55:07.195Z,64.61
2018-04-25T17:57:37.880Z,64.11
2018-04-25T18:00:06.506Z,64.06
2018-04-25T18:05:12.019Z,63.78
2018-04-25T18:07:39.590Z,63.46
2018-04-25T18:10:07.175Z,63.12
2018-04-25T18:12:39.248Z,63.69
2018-04-25T18:15:06.939Z,63.83
2018-04-25T18:17:39.294Z,63.95
2018-04-25T18:20:07.057Z,64.28
2018-04-25T18:22:34.563Z,64.42
2018-04-25T18:25:02.166Z,64.87
2018-04-25T18:27:29.719Z,65.01
2018-04-25T18:29:58.202Z,65.84
2018-04-25T18:32:26.691Z,65.98
2018-04-25T18:34:58.075Z,66.88
2018-04-25T18:37:25.745Z,67.43
2018-04-25T18:39:53.262Z,67.82
2018-04-25T18:42:20.783Z,68.34
2018-04-25T18:44:48.342Z,68.72
2018-04-25T18:47:16.726Z,69.36
2018-04-25T18:49:45.041Z,69.82
2018-04-25T18:52:15.199Z,70.07
2018-04-25T18:54:43.904Z,70.21
2018-04-25T18:57:31.219Z,70.31
2018-04-25T18:59:58.778Z,71.24
2018-04-25T19:02:26.331Z,71.13
2018-04-25T19:04:57.884Z,71.40
2018-04-25T19:07:26.417Z,71.71
2018-04-25T19:09:55.380Z,71.39
2018-04-25T19:12:22.977Z,71.44
2018-04-25T19:14:50.551Z,71.65
2018-04-25T19:17:18.088Z,71.10
2018-04-25T19:19:45.647Z,71.21
2018-04-25T19:22:15.293Z,71.16
2018-04-25T19:24:42.913Z,70.99
2018-04-25T19:27:15.033Z,71.18
2018-04-25T19:29:43.539Z,71.34
2018-04-25T19:32:11.088Z,71.36
2018-04-25T19:34:38.652Z,71.96
2018-04-25T19:37:06.151Z,72.27
2018-04-25T19:39:34.614Z,72.64
2018-04-25T19:42:02.922Z,73.01
2018-04-25T19:44:31.380Z,72.72
2018-04-25T19:46:58.918Z,73.29
2018-04-25T19:49:26.504Z,73.60
2018-04-25T19:51:54.015Z,73.88
2018-04-25T19:54:22.196Z,74.34
2018-04-25T19:56:50.534Z,74.70
2018-04-25T19:59:19.015Z,74.86
2018-04-25T20:01:49.112Z,75.19
2018-04-25T20:04:16.675Z,75.67
2018-04-25T20:06:44.227Z,75.86
2018-04-25T20:09:11.791Z,76.37
2018-04-25T20:11:39.334Z,76.60
2018-04-25T20:14:06.906Z,76.46
2018-04-25T20:16:35.479Z,76.83
2018-04-25T20:19:03.172Z,76.91
2018-04-25T20:21:30.688Z,77.25
2018-04-25T20:23:58.222Z,77.31
2018-04-25T20:26:25.839Z,77.35
2018-04-25T20:28:53.364Z,77.46
2018-04-25T20:31:24.441Z,77.56
2018-04-25T20:33:53.456Z,77.79
2018-04-25T20:36:22.017Z,77.76
2018-04-25T20:38:49.468Z,78.06
2018-04-25T20:41:17.023Z,78.17
2018-04-25T20:43:44.799Z,78.55
2018-04-25T20:46:12.322Z,78.32
2018-04-25T20:48:42.484Z,78.59
2018-04-25T20:51:10.871Z,78.90
2018-04-25T20:53:39.147Z,79.08
2018-04-25T20:56:06.683Z,79.04
2018-04-25T20:58:34.268Z,78.67
2018-04-25T21:01:01.727Z,78.02
2018-04-25T21:03:29.288Z,77.53
2018-04-25T21:05:59.396Z,77.20
2018-04-25T21:08:26.964Z,77.08
2018-04-25T21:10:57.475Z,77.03
2018-04-25T21:13:25.028Z,77.30
2018-04-25T21:15:52.527Z,77.30
2018-04-25T21:18:20.060Z,77.24
2018-04-25T21:20:47.613Z,77.17
2018-04-25T21:23:15.221Z,77.30
2018-04-25T21:25:43.709Z,77.37
2018-04-25T21:28:16.132Z,77.29
2018-04-25T21:30:44.346Z,77.07
2018-04-25T21:33:11.902Z,77.12
2018-04-25T21:35:39.430Z,77.18
2018-04-25T21:38:06.987Z,77.30
2018-04-25T21:40:37.150Z,77.19
2018-04-25T21:43:07.240Z,77.35
2018-04-25T21:45:34.879Z,77.75
2018-04-25T21:48:04.827Z,78.09
2018-04-25T21:50:32.327Z,78.21
2018-04-25T21:52:59.850Z,78.16
2018-04-25T21:55:27.465Z,78.22
2018-04-25T21:57:55.084Z,78.11
2018-04-25T22:00:23.476Z,78.16
2018-04-25T22:02:51.067Z,78.31
2018-04-25T22:05:18.943Z,78.34
2018-04-25T22:07:46.511Z,78.31
2018-04-25T22:10:14.040Z,78.12
2018-04-25T22:12:41.558Z,77.93
2018-04-25T22:15:10.079Z,77.62
2018-04-25T22:17:38.778Z,77.61
2018-04-25T22:20:07.043Z,77.60
2018-04-25T22:22:34.598Z,77.75
2018-04-25T22:25:02.124Z,78.23
2018-04-25T22:27:29.651Z,78.50
2018-04-25T22:29:57.223Z,78.96
2018-04-25T22:32:25.900Z,79.32
2018-04-25T22:34:58.355Z,79.69
2018-04-25T22:37:27.247Z,79.46
2018-04-25T22:39:54.821Z,79.51
2018-04-25T22:42:22.363Z,79.52
2018-04-25T22:44:49.867Z,79.23
2018-04-25T22:47:18.507Z,79.04
2018-04-25T22:49:47.056Z,79.09
2018-04-25T22:52:17.399Z,78.88
2018-04-25T22:54:47.445Z,78.51
2018-04-25T22:57:15.010Z,77.99
2018-04-25T22:59:42.571Z,77.76
2018-04-25T23:02:10.115Z,77.61
2018-04-25T23:04:37.636Z,77.67
2018-04-25T23:07:11.911Z,77.62
2018-04-25T23:09:42.216Z,77.76
2018-04-25T23:12:10.825Z,78.01
2018-04-25T23:14:38.315Z,78.23
2018-04-25T23:17:11.324Z,78.39
2018-04-25T23:19:38.822Z,78.28
2018-04-25T23:22:06.369Z,78.46
2018-04-25T23:24:35.044Z,78.61
2018-04-25T23:27:05.338Z,78.73
2018-04-25T23:29:34.158Z,78.89
2018-04-25T23:32:01.763Z,78.96
2018-04-25T23:34:29.274Z,79.00
2018-04-25T23:36:56.839Z,79.12
2018-04-25T23:39:24.363Z,79.12
2018-04-25T23:41:53.607Z,79.20
2018-04-25T23:44:22.088Z,79.29
2018-04-25T23:46:50.504Z,79.24
2018-04-25T23:49:18.080Z,79.07
2018-04-25T23:51:45.683Z,78.87
2018-04-25T23:54:13.191Z,78.85
2018-04-25T23:56:40.755Z,78.89
2018-04-25T23:59:09.043Z,78.97
